Ship Status Report: callsign BATFR60

sailwx.info

Track history (hours):
 
Tides and Currents Weather Stations Pressure Air Temp Water Temp Dewpoint Dewpoint Depression Visibility Wind Speed Wind Dir Waves Ship Positions

Callsign BATFR60 (name unknown)

Last reported at 2015-Mar-04 21:00 UTC. Time now 2015-Mar-04 22:49 UTC.
Position N 53°24' W 003°18'.

Wind from 230 at 11 knots

Barometer 1036.4 mb
Air temperature 6.0 ° C
Dewpoint -0.5 ° C
Water temperature 4.5 ° C

Date/timePositionNaut miles runAvg speedWind from/ knotsBaromVisibWave heightAir tempDewpointWater temp
2015-Mar-04 21:00N 53°24' W 003°18'21 2.0 230 / 111036.4 6.0-0.5 4.5
2015-Mar-04 10:00N 53°24' W 003°54'9 4.7 270 / 201029.0 5.9 1.9 5.2
2015-Mar-04 08:00N 53°30' W 004°06'7 7.0 270 / 291025.9 5.2 1.4 5.4
2015-Mar-04 07:00N 53°24' W 004°12'1212.3 280 / 251026.2 5.4 1.2 5.4
2015-Mar-04 06:00N 53°30' W 004°30'23 7.7 280 / 311024.810.8 2.0 5.2 1.0 5.7
2015-Mar-04 03:00N 53°12' W 004°54'14 7.0 260 / 221022.4 5.0-0.0 6.4
2015-Mar-04 01:00N 53°00' W 005°06'1212.0 240 / 251021.6 4.9 0.4 7.4
2015-Mar-04 00:00N 52°48' W 005°06'7 7.0 240 / 311021.2 4.9 0.9 7.4
2015-Mar-03 23:00N 52°42' W 005°12'7 7.0 240 / 361021.1 5.2 0.7 7.4
2015-Mar-03 22:00N 52°36' W 005°18'1312.5 240 / 311020.9 5.4 1.5 7.4
2015-Mar-03 21:00N 52°24' W 005°24'7 7.0 250 / 211019.9 5.4 1.0 7.4
2015-Mar-03 20:00N 52°18' W 005°30'1312.6 250 / 181019.2 5.2 1.4 7.4
2015-Mar-03 19:00N 52°06' W 005°36'1312.6 250 / 221018.4 5.5 1.2 7.5
2015-Mar-03 18:00N 51°54' W 005°42'7 7.1 280 / 261017.710.8 5.2 1.7 7.7
2015-Mar-03 17:00N 51°48' W 005°48'1312.6 240 / 261017.8 6.7-0.7 7.7
2015-Mar-03 16:00N 51°36' W 005°42'1312.7 260 / 361017.1 6.5-1.2 7.9
2015-Mar-03 15:00N 51°30' W 005°24'7 7.5 250 / 341017.2 6.7-1.2 7.5
2015-Mar-03 14:00N 51°30' W 005°12'1111.2 250 / 291017.1 6.7-0.5 7.2
2015-Mar-03 13:00N 51°30' W 004°54'10 9.6 260 / 291017.3 6.4-0.8 6.9
2015-Mar-03 12:00N 51°24' W 004°42'1111.2 240 / 331017.0 4.7 0.9 6.7
2015-Mar-03 11:00N 51°24' W 004°24'1515.0 250 / 251016.1 6.4 0.4 6.2
2015-Mar-03 10:00N 51°24' W 004°00'1515.0 260 / 251015.6 6.5 0.7 6.4
2015-Mar-03 09:00N 51°24' W 003°36'3115.3 240 / 251014.3 5.5 1.7 6.0
2015-Mar-03 07:00N 51°30' W 002°48'16 2.7 230 / 181012.3 3.7 1.2 5.2
2015-Mar-03 01:00N 51°24' W 003°12'1616.1 230 / 171014.4 5.4 1.9 5.4
2015-Mar-03 00:00N 51°18' W 003°36'2613.1 240 / 181015.1 6.0 2.2 5.9
2015-Mar-02 22:00N 51°18' W 004°18'14 7.1 240 / 141015.1 5.7 2.2 6.7
2015-Mar-02 20:00N 51°06' W 004°30'10 9.6 250 / 221014.9 6.4 1.9 7.4
2015-Mar-02 19:00N 51°00' W 004°42'1111.3 260 / 211015.0 6.4 1.5 7.4
2015-Mar-02 18:00N 51°00' W 005°00'1312.6 240 / 201013.9 5.7 1.4 8.0
2015-Mar-02 17:00N 50°48' W 005°06'2914.5 250 / 251014.5 7.4 0.2 8.2
2015-Mar-02 15:00N 50°30' W 005°42'1414.2 260 / 331014.9 8.4-0.3 8.4
2015-Mar-02 14:00N 50°18' W 005°54'1212.0 260 / 291013.9 7.2 0.9 8.4
2015-Mar-02 13:00N 50°06' W 005°54'1212.0 270 / 311014.1 5.9 1.5 8.4
2015-Mar-02 12:00N 49°54' W 005°54'1312.6 270 / 331014.1 6.4 0.9 8.7
2015-Mar-02 11:00N 49°42' W 006°00'1818.0 250 / 241014.3 7.9-1.0 8.7
2015-Mar-02 10:00N 49°24' W 006°00'1212.0 260 / 191014.8 7.4-0.3 9.0
2015-Mar-02 09:00N 49°12' W 006°00'18 9.2 280 / 291013.8 8.0-0.7 9.2
2015-Mar-02 07:00N 48°54' W 006°06'1212.0 280 / 271012.2 7.7 1.4 9.4
2015-Mar-02 06:00N 48°42' W 006°06'1212.0 280 / 281012.0 8.0 1.2 9.4
2015-Mar-02 05:00N 48°30' W 006°06'7 7.2 280 / 371011.3 8.7 3.7 9.7
2015-Mar-02 04:00N 48°24' W 006°00'7 7.2 270 / 391010.7 8.9 2.9 9.7
2015-Mar-02 03:00N 48°18' W 005°54'2010.0 270 / 351010.3 9.4 3.9 9.9
2015-Mar-02 01:00N 48°06' W 005°30'8 8.0 280 / 361010.3 8.4 4.0 9.9
2015-Mar-02 00:00N 48°06' W 005°18'7 7.2 260 / 401009.3 10.4 5.2 9.7
2015-Mar-01 23:00N 48°00' W 005°12'1010.0 260 / 321009.7 9.9 5.9 9.9
2015-Mar-01 22:00N 47°54' W 005°00'1010.0 260 / 301010.1 10.7 7.4 9.9
2015-Mar-01 21:00N 47°48' W 004°48'8 8.1 260 / 291009.6 10.9 7.9 9.5
2015-Mar-01 20:00N 47°48' W 004°36'7 7.2 260 / 331009.9 11.2 7.9 9.9
2015-Mar-01 19:00N 47°42' W 004°30'1010.1 250 / 341009.3 11.4 8.9 9.4
2015-Mar-01 18:00N 47°36' W 004°18'8 8.1 250 / 341009.1 11.4 9.0 9.4
2015-Mar-01 17:00N 47°36' W 004°06'7 7.2 250 / 321008.7 11.5 9.2 9.7
2015-Mar-01 16:00N 47°30' W 004°00'1010.1 250 / 341008.5 11.7 9.5 9.5
2015-Mar-01 15:00N 47°24' W 003°48'8 8.1 240 / 311008.6 11.710.4 9.4
2015-Mar-01 14:00N 47°24' W 003°36'1010.1 230 / 281008.9 11.510.4 9.7
2015-Mar-01 13:00N 47°18' W 003°24'7 7.3 230 / 251011.0 11.4 9.7 9.2
2015-Mar-01 12:00N 47°12' W 003°18'8 8.2 230 / 301011.9 11.5 9.2 9.0
2015-Mar-01 11:00N 47°12' W 003°06'8 8.2 230 / 281012.3 11.2 9.2 9.0
2015-Mar-01 10:00N 47°12' W 002°54'17 8.7 230 / 241012.9 11.2 8.9 9.2
2015-Mar-01 08:00N 47°06' W 002°30'4 0.2 230 / 201013.0 10.7 9.0 8.4
2015-Feb-28 07:00N 47°06' W 002°24'7 7.3 160 / 211016.3 8.5 7.9 8.4
2015-Feb-28 06:00N 47°12' W 002°18'0 0.0 170 / 281017.1 8.0 7.0 7.7
2015-Feb-27 05:00N 47°12' W 002°18'1514.5 320 / 231022.6 5.9 1.5 7.5
2015-Feb-27 04:00N 47°00' W 002°30'1212.0 320 / 321021.7 6.7 1.9 8.0
2015-Feb-27 03:00N 46°48' W 002°30'7 7.3 320 / 321021.3 7.4 1.7 8.4
2015-Feb-27 02:00N 46°42' W 002°24'7 7.3 330 / 301021.4 7.9 1.9 9.4
2015-Feb-27 01:00N 46°36' W 002°18'1312.7 320 / 291020.7 8.0 2.2 9.5
2015-Feb-27 00:00N 46°24' W 002°12'7 7.3 330 / 301019.9 8.5 3.4 9.2
2015-Feb-26 23:00N 46°18' W 002°06'7 7.3 320 / 371019.2 8.9 2.5 9.0
2015-Feb-26 22:00N 46°12' W 002°00'7 7.3 310 / 371018.5 9.5 3.4 8.7
2015-Feb-26 21:00N 46°06' W 001°54'7 7.3 310 / 301017.7 9.7 5.5 9.0
2015-Feb-26 20:00N 46°00' W 001°48'7 7.3 300 / 291017.3 10.0 7.7 8.7
2015-Feb-26 19:00N 45°54' W 001°42'1312.7 300 / 291017.2 10.2 9.0 8.7
2015-Feb-26 18:00N 45°42' W 001°36'2210.9 280 / 251016.9 10.5 9.9 8.4
2015-Feb-26 16:00N 45°36' W 001°06'1514.7 240 / 201017.6 10.2 9.2 7.7
2015-Feb-26 15:00N 45°24' W 000°54'   250 / 201018.6 11.510.0 7.2
Track history (hours):
 
Tides and Currents Weather Stations Pressure Air Temp Water Temp Dewpoint Dewpoint Depression Visibility Wind Speed Wind Dir Waves Ship Positions

Callsign BATFR60 (name unknown)

Last reported at 2015-Mar-04 21:00 UTC. Time now 2015-Mar-04 22:49 UTC.
Position N 53°24' W 003°18'.

Wind from 230 at 11 knots

Barometer 1036.4 mb
Air temperature 6.0 ° C
Dewpoint -0.5 ° C
Water temperature 4.5 ° C

Date/timePositionNaut miles runAvg speedWind from/ knotsBaromVisibWave heightAir tempDewpointWater temp
2015-Mar-04 21:00N 53°24' W 003°18'21 2.0 230 / 111036.4 6.0-0.5 4.5
2015-Mar-04 10:00N 53°24' W 003°54'9 4.7 270 / 201029.0 5.9 1.9 5.2
2015-Mar-04 08:00N 53°30' W 004°06'7 7.0 270 / 291025.9 5.2 1.4 5.4
2015-Mar-04 07:00N 53°24' W 004°12'1212.3 280 / 251026.2 5.4 1.2 5.4
2015-Mar-04 06:00N 53°30' W 004°30'23 7.7 280 / 311024.810.8 2.0 5.2 1.0 5.7
2015-Mar-04 03:00N 53°12' W 004°54'14 7.0 260 / 221022.4 5.0-0.0 6.4
2015-Mar-04 01:00N 53°00' W 005°06'1212.0 240 / 251021.6 4.9 0.4 7.4
2015-Mar-04 00:00N 52°48' W 005°06'7 7.0 240 / 311021.2 4.9 0.9 7.4
2015-Mar-03 23:00N 52°42' W 005°12'7 7.0 240 / 361021.1 5.2 0.7 7.4
2015-Mar-03 22:00N 52°36' W 005°18'1312.5 240 / 311020.9 5.4 1.5 7.4
2015-Mar-03 21:00N 52°24' W 005°24'7 7.0 250 / 211019.9 5.4 1.0 7.4
2015-Mar-03 20:00N 52°18' W 005°30'1312.6 250 / 181019.2 5.2 1.4 7.4
2015-Mar-03 19:00N 52°06' W 005°36'1312.6 250 / 221018.4 5.5 1.2 7.5
2015-Mar-03 18:00N 51°54' W 005°42'7 7.1 280 / 261017.710.8 5.2 1.7 7.7
2015-Mar-03 17:00N 51°48' W 005°48'1312.6 240 / 261017.8 6.7-0.7 7.7
2015-Mar-03 16:00N 51°36' W 005°42'1312.7 260 / 361017.1 6.5-1.2 7.9
2015-Mar-03 15:00N 51°30' W 005°24'7 7.5 250 / 341017.2 6.7-1.2 7.5
2015-Mar-03 14:00N 51°30' W 005°12'1111.2 250 / 291017.1 6.7-0.5 7.2
2015-Mar-03 13:00N 51°30' W 004°54'10 9.6 260 / 291017.3 6.4-0.8 6.9
2015-Mar-03 12:00N 51°24' W 004°42'1111.2 240 / 331017.0 4.7 0.9 6.7
2015-Mar-03 11:00N 51°24' W 004°24'1515.0 250 / 251016.1 6.4 0.4 6.2
2015-Mar-03 10:00N 51°24' W 004°00'1515.0 260 / 251015.6 6.5 0.7 6.4
2015-Mar-03 09:00N 51°24' W 003°36'3115.3 240 / 251014.3 5.5 1.7 6.0
2015-Mar-03 07:00N 51°30' W 002°48'16 2.7 230 / 181012.3 3.7 1.2 5.2
2015-Mar-03 01:00N 51°24' W 003°12'1616.1 230 / 171014.4 5.4 1.9 5.4
2015-Mar-03 00:00N 51°18' W 003°36'2613.1 240 / 181015.1 6.0 2.2 5.9
2015-Mar-02 22:00N 51°18' W 004°18'14 7.1 240 / 141015.1 5.7 2.2 6.7
2015-Mar-02 20:00N 51°06' W 004°30'10 9.6 250 / 221014.9 6.4 1.9 7.4
2015-Mar-02 19:00N 51°00' W 004°42'1111.3 260 / 211015.0 6.4 1.5 7.4
2015-Mar-02 18:00N 51°00' W 005°00'1312.6 240 / 201013.9 5.7 1.4 8.0
2015-Mar-02 17:00N 50°48' W 005°06'2914.5 250 / 251014.5 7.4 0.2 8.2
2015-Mar-02 15:00N 50°30' W 005°42'1414.2 260 / 331014.9 8.4-0.3 8.4
2015-Mar-02 14:00N 50°18' W 005°54'1212.0 260 / 291013.9 7.2 0.9 8.4
2015-Mar-02 13:00N 50°06' W 005°54'1212.0 270 / 311014.1 5.9 1.5 8.4
2015-Mar-02 12:00N 49°54' W 005°54'1312.6 270 / 331014.1 6.4 0.9 8.7
2015-Mar-02 11:00N 49°42' W 006°00'1818.0 250 / 241014.3 7.9-1.0 8.7
2015-Mar-02 10:00N 49°24' W 006°00'1212.0 260 / 191014.8 7.4-0.3 9.0
2015-Mar-02 09:00N 49°12' W 006°00'18 9.2 280 / 291013.8 8.0-0.7 9.2
2015-Mar-02 07:00N 48°54' W 006°06'1212.0 280 / 271012.2 7.7 1.4 9.4
2015-Mar-02 06:00N 48°42' W 006°06'1212.0 280 / 281012.0 8.0 1.2 9.4
2015-Mar-02 05:00N 48°30' W 006°06'7 7.2 280 / 371011.3 8.7 3.7 9.7
2015-Mar-02 04:00N 48°24' W 006°00'7 7.2 270 / 391010.7 8.9 2.9 9.7
2015-Mar-02 03:00N 48°18' W 005°54'2010.0 270 / 351010.3 9.4 3.9 9.9
2015-Mar-02 01:00N 48°06' W 005°30'8 8.0 280 / 361010.3 8.4 4.0 9.9
2015-Mar-02 00:00N 48°06' W 005°18'7 7.2 260 / 401009.3 10.4 5.2 9.7
2015-Mar-01 23:00N 48°00' W 005°12'1010.0 260 / 321009.7 9.9 5.9 9.9
2015-Mar-01 22:00N 47°54' W 005°00'1010.0 260 / 301010.1 10.7 7.4 9.9
2015-Mar-01 21:00N 47°48' W 004°48'8 8.1 260 / 291009.6 10.9 7.9 9.5
2015-Mar-01 20:00N 47°48' W 004°36'7 7.2 260 / 331009.9 11.2 7.9 9.9
2015-Mar-01 19:00N 47°42' W 004°30'1010.1 250 / 341009.3 11.4 8.9 9.4
2015-Mar-01 18:00N 47°36' W 004°18'8 8.1 250 / 341009.1 11.4 9.0 9.4
2015-Mar-01 17:00N 47°36' W 004°06'7 7.2 250 / 321008.7 11.5 9.2 9.7
2015-Mar-01 16:00N 47°30' W 004°00'1010.1 250 / 341008.5 11.7 9.5 9.5
2015-Mar-01 15:00N 47°24' W 003°48'8 8.1 240 / 311008.6 11.710.4 9.4
2015-Mar-01 14:00N 47°24' W 003°36'1010.1 230 / 281008.9 11.510.4 9.7
2015-Mar-01 13:00N 47°18' W 003°24'7 7.3 230 / 251011.0 11.4 9.7 9.2
2015-Mar-01 12:00N 47°12' W 003°18'8 8.2 230 / 301011.9 11.5 9.2 9.0
2015-Mar-01 11:00N 47°12' W 003°06'8 8.2 230 / 281012.3 11.2 9.2 9.0
2015-Mar-01 10:00N 47°12' W 002°54'17 8.7 230 / 241012.9 11.2 8.9 9.2
2015-Mar-01 08:00N 47°06' W 002°30'4 0.2 230 / 201013.0 10.7 9.0 8.4
2015-Feb-28 07:00N 47°06' W 002°24'7 7.3 160 / 211016.3 8.5 7.9 8.4
2015-Feb-28 06:00N 47°12' W 002°18'0 0.0 170 / 281017.1 8.0 7.0 7.7
2015-Feb-27 05:00N 47°12' W 002°18'1514.5 320 / 231022.6 5.9 1.5 7.5
2015-Feb-27 04:00N 47°00' W 002°30'1212.0 320 / 321021.7 6.7 1.9 8.0
2015-Feb-27 03:00N 46°48' W 002°30'7 7.3 320 / 321021.3 7.4 1.7 8.4
2015-Feb-27 02:00N 46°42' W 002°24'7 7.3 330 / 301021.4 7.9 1.9 9.4
2015-Feb-27 01:00N 46°36' W 002°18'1312.7 320 / 291020.7 8.0 2.2 9.5
2015-Feb-27 00:00N 46°24' W 002°12'7 7.3 330 / 301019.9 8.5 3.4 9.2
2015-Feb-26 23:00N 46°18' W 002°06'7 7.3 320 / 371019.2 8.9 2.5 9.0
2015-Feb-26 22:00N 46°12' W 002°00'7 7.3 310 / 371018.5 9.5 3.4 8.7
2015-Feb-26 21:00N 46°06' W 001°54'7 7.3 310 / 301017.7 9.7 5.5 9.0
2015-Feb-26 20:00N 46°00' W 001°48'7 7.3 300 / 291017.3 10.0 7.7 8.7
2015-Feb-26 19:00N 45°54' W 001°42'1312.7 300 / 291017.2 10.2 9.0 8.7
2015-Feb-26 18:00N 45°42' W 001°36'2210.9 280 / 251016.9 10.5 9.9 8.4
2015-Feb-26 16:00N 45°36' W 001°06'1514.7 240 / 201017.6 10.2 9.2 7.7
2015-Feb-26 15:00N 45°24' W 000°54'   250 / 201018.6 11.510.0 7.2

Dump ship's entire track history